Time;durP1;ratioP1;P1;durP2;ratioP2;P2;SDS_P1;SDS_P2;PMS_P1;PMS_P2;Temp;Humidity;BMP_temperature;BMP_pressure;BME280_temperature;BME280_humidity;BME280_pressure;Samples;Min_cycle;Max_cycle;Signal;HPM_P1;HPM_P2
2022/09/19 00:00:40;;;;;;;0.20;0.20;;;;;;;4.77;70.26;93506.28;5071168;28;20020;-33
2022/09/19 00:03:06;;;;;;;0.32;0.32;;;;;;;4.68;69.71;93506.63;5071174;28;20039;-33
2022/09/19 00:05:32;;;;;;;0.45;0.45;;;;;;;4.58;69.54;93493.28;5071452;28;20496;-33
2022/09/19 00:07:57;;;;;;;0.65;0.65;;;;;;;4.61;70.03;93483.31;5070960;28;20025;-33
2022/09/19 00:10:23;;;;;;;0.38;0.38;;;;;;;4.66;70.07;93501.66;5071133;28;20107;-33
2022/09/19 00:12:48;;;;;;;0.57;0.57;;;;;;;4.43;71.28;93503.06;5071018;28;20033;-33
2022/09/19 00:15:14;;;;;;;1.50;0.47;;;;;;;4.53;70.38;93502.25;5076294;28;20012;-33
2022/09/19 00:17:39;;;;;;;0.85;0.85;;;;;;;4.43;69.83;93497.59;5091205;28;20035;-33
2022/09/19 00:20:06;;;;;;;0.20;0.20;;;;;;;4.43;70.33;93500.34;5091414;28;20016;-33
2022/09/19 00:22:32;;;;;;;0.50;0.50;;;;;;;4.48;70.33;93503.03;5091265;28;20113;-33
2022/09/19 00:24:58;;;;;;;0.40;0.40;;;;;;;4.54;69.65;93498.28;5090929;28;20031;-33
2022/09/19 00:27:25;;;;;;;0.20;0.20;;;;;;;4.51;69.20;93496.56;5091025;28;20407;-33
2022/09/19 00:29:52;;;;;;;0.20;0.20;;;;;;;4.54;69.26;93498.28;5090872;28;20115;-33
2022/09/19 00:32:21;;;;;;;0.30;0.30;;;;;;;4.51;68.98;93491.09;5090854;28;20024;-33
2022/09/19 00:34:49;;;;;;;0.35;0.35;;;;;;;4.43;68.75;93492.88;5091203;28;20404;-33
2022/09/19 00:37:18;;;;;;;0.30;0.30;;;;;;;4.29;69.86;93493.97;5090705;28;20120;-33
2022/09/19 00:39:44;;;;;;;0.30;0.30;;;;;;;4.36;69.34;93493.44;5090940;28;20016;-33
2022/09/19 00:42:15;;;;;;;0.20;0.20;;;;;;;4.31;68.96;93483.25;5090623;28;20016;-33
2022/09/19 00:44:41;;;;;;;0.20;0.20;;;;;;;4.24;69.44;93480.34;5091070;28;20030;-33
2022/09/19 00:47:17;;;;;;;0.50;0.50;;;;;;;4.28;69.69;93484.28;5090727;28;20016;-33
2022/09/19 00:49:45;;;;;;;0.45;0.45;;;;;;;4.00;71.22;93485.72;5072551;28;20031;-33
2022/09/19 00:52:15;;;;;;;0.20;0.20;;;;;;;4.21;70.52;93475.88;5072879;28;20024;-33
2022/09/19 00:54:42;;;;;;;0.20;0.20;;;;;;;4.03;70.67;93482.69;5091150;28;20073;-33
2022/09/19 00:57:09;;;;;;;0.20;0.20;;;;;;;4.08;70.90;93468.28;5072476;28;20410;-33
2022/09/19 00:59:37;;;;;;;0.30;0.30;;;;;;;3.93;70.66;93470.59;5072614;28;20023;-33
2022/09/19 01:02:05;;;;;;;0.40;0.40;;;;;;;3.91;70.51;93481.28;5091031;28;20434;-33
2022/09/19 01:04:35;;;;;;;0.30;0.30;;;;;;;3.70;70.00;93436.47;5090695;28;20077;-33
2022/09/19 01:07:04;;;;;;;0.30;0.30;;;;;;;3.88;71.14;93474.09;5073039;28;20028;-33
2022/09/19 01:09:51;;;;;;;0.20;0.20;;;;;;;3.58;73.01;93476.72;5090450;28;20480;-33
2022/09/19 01:12:37;;;;;;;0.20;0.20;;;;;;;3.70;72.66;93474.69;5090656;28;20070;-33
2022/09/19 01:15:14;;;;;;;0.20;0.20;;;;;;;3.72;72.51;93467.50;5072628;28;20032;-33
2022/09/19 01:17:50;;;;;;;0.20;0.20;;;;;;;3.98;70.62;93469.84;5090420;28;20085;-33
2022/09/19 01:20:18;;;;;;;0.32;0.32;;;;;;;3.96;72.18;93468.84;5074661;28;20440;-33
2022/09/19 01:23:12;;;;;;;0.40;0.40;;;;;;;3.87;72.39;93466.41;5094727;28;20031;-33
2022/09/19 01:26:02;;;;;;;0.20;0.20;;;;;;;3.96;71.41;93466.88;5094185;28;20035;-33
2022/09/19 01:28:30;;;;;;;0.20;0.20;;;;;;;3.93;71.02;93443.28;5076332;28;20032;-33
2022/09/19 01:31:18;;;;;;;0.30;0.30;;;;;;;3.89;71.08;93437.34;5076692;28;20027;-33
2022/09/19 01:34:01;;;;;;;0.20;0.20;;;;;;;4.04;71.38;93447.94;5076624;28;20508;-33
2022/09/19 01:36:30;;;;;;;0.30;0.30;;;;;;;3.89;71.35;93445.53;5094360;28;20028;-33
2022/09/19 01:38:57;;;;;;;0.20;0.20;;;;;;;3.62;72.22;93444.44;5094119;28;20443;-33
2022/09/19 01:41:22;;;;;;;0.30;0.30;;;;;;;3.46;71.86;93426.16;5076269;28;20024;-33
2022/09/19 01:43:50;;;;;;;0.63;0.60;;;;;;;3.56;71.19;93435.53;5094405;28;20035;-33
2022/09/19 01:46:27;;;;;;;0.52;0.52;;;;;;;3.49;71.70;93435.31;5094388;28;20112;-33
2022/09/19 01:49:28;;;;;;;0.32;0.32;;;;;;;3.55;71.01;93430.59;5075993;28;20059;-33
2022/09/19 01:52:07;;;;;;;0.22;0.22;;;;;;;3.63;70.40;93428.81;5093876;28;20071;-33
2022/09/19 01:54:43;;;;;;;0.30;0.30;;;;;;;3.52;70.75;93426.13;5076325;28;20095;-33
2022/09/19 01:57:20;;;;;;;0.20;0.20;;;;;;;3.50;71.16;93421.19;5076252;28;20038;-33
2022/09/19 02:00:14;;;;;;;0.40;0.40;;;;;;;3.60;70.30;93421.63;5093912;28;20026;-33
2022/09/19 02:03:01;;;;;;;0.50;0.50;;;;;;;3.31;71.76;93414.81;5075800;28;20028;-33
2022/09/19 02:06:10;;;;;;;0.20;0.20;;;;;;;3.17;72.95;93418.59;5094054;28;20032;-33
2022/09/19 02:08:47;;;;;;;0.40;0.40;;;;;;;3.26;73.40;93425.75;5093814;28;20039;-33
2022/09/19 02:11:31;;;;;;;0.82;0.80;;;;;;;3.23;73.20;93415.84;5075764;28;20484;-33
2022/09/19 02:17:15;;;;;;;0.57;0.57;;;;;;;3.29;72.90;93422.75;5057026;28;20047;-33
2022/09/19 02:20:18;;;;;;;0.40;0.40;;;;;;;3.31;72.58;93419.53;5073284;28;20037;-33
2022/09/19 02:23:20;;;;;;;0.30;0.30;;;;;;;3.39;71.50;93420.47;5073494;28;20098;-33
2022/09/19 02:25:47;;;;;;;0.30;0.30;;;;;;;3.33;72.15;93408.84;5081886;28;20119;-33
2022/09/19 02:28:41;;;;;;;0.20;0.20;;;;;;;3.30;73.03;93415.31;5093558;28;20163;-32
2022/09/19 02:31:26;;;;;;;0.88;0.88;;;;;;;3.17;73.67;93415.84;5072776;28;20397;-33
2022/09/19 02:33:54;;;;;;;0.20;0.20;;;;;;;3.23;72.09;93402.22;5073332;28;20052;-33
2022/09/19 02:36:39;;;;;;;0.20;0.20;;;;;;;3.37;73.46;93420.25;5072898;28;20032;-32
2022/09/19 02:39:28;;;;;;;0.28;0.28;;;;;;;3.34;72.52;93407.59;5055001;28;20048;-33
2022/09/19 02:42:05;;;;;;;;;;;;;;;3.06;73.88;93405.72;5062306;28;20115;-33
2022/09/19 02:44:52;;;;;;;0.32;0.32;;;;;;;3.19;73.54;93407.16;5075407;28;19908;-33
2022/09/19 02:48:15;;;;;;;0.30;0.30;;;;;;;3.20;73.22;93416.84;5093245;28;20054;-33
2022/09/19 02:50:52;;;;;;;0.35;0.35;;;;;;;3.12;73.42;93410.44;4991043;28;20418;-33
2022/09/19 02:53:42;;;;;;;0.20;0.20;;;;;;;3.10;73.55;93412.91;4991024;28;20146;-33
2022/09/19 02:56:13;;;;;;;0.30;0.30;;;;;;;3.03;73.36;93406.72;5058742;28;20040;-33
2022/09/19 02:59:01;;;;;;;0.30;0.30;;;;;;;3.15;72.81;93410.16;5076718;28;20103;-33
2022/09/19 03:01:45;;;;;;;0.85;0.85;;;;;;;3.12;73.68;93426.81;5092909;28;20016;-33
2022/09/19 03:04:14;;;;;;;0.20;0.20;;;;;;;3.23;73.38;93424.03;5092891;28;20027;-33
2022/09/19 03:06:54;;;;;;;;;;;;;;;3.17;72.07;93429.50;5075340;28;20032;-33
2022/09/19 03:09:59;;;;;;;0.30;0.30;;;;;;;3.29;70.67;93422.03;5092568;28;19997;-33
2022/09/19 03:12:37;;;;;;;0.30;0.30;;;;;;;3.20;70.90;93419.56;5092528;28;20062;-33
2022/09/19 03:15:05;;;;;;;0.40;0.40;;;;;;;3.17;70.30;93431.47;5074919;28;20104;-33
2022/09/19 03:18:00;;;;;;;0.30;0.30;;;;;;;3.12;70.46;93438.44;5087008;28;20553;-33
2022/09/19 03:20:27;;;;;;;0.70;0.52;;;;;;;3.12;70.34;93435.72;5074727;28;20069;-33
2022/09/19 03:23:20;;;;;;;0.25;0.25;;;;;;;3.07;70.46;93431.75;5092549;28;20059;-32
2022/09/19 03:25:45;;;;;;;0.20;0.20;;;;;;;2.86;71.16;93433.31;5073842;28;20027;-33
2022/09/19 03:28:11;;;;;;;0.63;0.63;;;;;;;2.80;71.82;93437.28;5092094;28;20028;-33
2022/09/19 03:34:00;;;;;;;0.20;0.20;;;;;;;2.66;72.99;93441.78;5092315;28;20039;-33
2022/09/19 03:36:28;;;;;;;0.30;0.30;;;;;;;2.83;72.52;93442.50;5092272;28;20099;-33
2022/09/19 03:38:55;;;;;;;0.20;0.20;;;;;;;2.84;73.42;93443.97;5086708;28;20044;-33
2022/09/19 03:41:22;;;;;;;0.30;0.30;;;;;;;2.83;72.49;93450.66;5092172;28;20107;-33
2022/09/19 03:43:48;;;;;;;0.63;0.63;;;;;;;2.63;73.11;93440.03;5091239;28;20023;-33
2022/09/19 03:46:16;;;;;;;0.20;0.20;;;;;;;2.83;72.16;93444.47;5091864;28;20030;-33
2022/09/19 03:48:46;;;;;;;0.30;0.30;;;;;;;2.86;72.05;93448.91;5091994;28;20107;-33
2022/09/19 03:52:03;;;;;;;1.27;1.17;;;;;;;2.62;72.54;93435.81;5091922;28;20043;-33
2022/09/19 03:54:29;;;;;;;0.30;0.30;;;;;;;2.66;72.98;93436.34;5091578;28;20023;-33
2022/09/19 03:57:35;;;;;;;0.20;0.20;;;;;;;2.85;72.52;93436.53;5091676;28;20106;-33
2022/09/19 04:00:13;;;;;;;0.30;0.30;;;;;;;2.79;72.70;93436.56;5091498;28;20145;-33
2022/09/19 04:03:13;;;;;;;0.50;0.50;;;;;;;2.81;72.12;93428.63;5091744;28;20024;-33
2022/09/19 04:06:15;;;;;;;0.20;0.20;;;;;;;2.81;72.05;93428.63;5073272;28;20412;-33
2022/09/19 04:08:41;;;;;;;0.20;0.20;;;;;;;2.62;72.17;93411.28;5091357;28;20032;-33
2022/09/19 04:11:08;;;;;;;0.28;0.28;;;;;;;2.65;72.94;93420.44;5091507;28;20035;-33
2022/09/19 04:13:35;;;;;;;0.40;0.40;;;;;;;2.66;72.36;93428.16;5091292;28;20024;-33
2022/09/19 04:16:01;;;;;;;0.28;0.28;;;;;;;2.53;72.76;93425.19;5091226;28;20028;-33
2022/09/19 04:18:27;;;;;;;0.20;0.20;;;;;;;2.47;72.71;93427.16;5091649;28;20465;-33
2022/09/19 04:20:53;;;;;;;0.50;0.50;;;;;;;2.52;72.46;93429.16;5091529;28;20024;-33
2022/09/19 04:23:18;;;;;;;1.50;1.40;;;;;;;2.71;71.74;93429.34;5072901;28;20032;-33
2022/09/19 04:25:46;;;;;;;0.40;0.40;;;;;;;2.82;71.12;93424.63;5090859;28;20024;-33
2022/09/19 04:28:17;;;;;;;0.30;0.30;;;;;;;2.61;72.05;93426.16;5090880;28;20091;-32
2022/09/19 04:30:43;;;;;;;0.30;0.30;;;;;;;2.54;72.27;93426.66;5091210;28;20034;-32
2022/09/19 04:33:20;;;;;;;0.40;0.40;;;;;;;2.62;72.13;93422.19;5090949;28;20101;-32
2022/09/19 04:35:46;;;;;;;0.20;0.20;;;;;;;2.77;72.00;93427.38;5090895;28;20522;-33
2022/09/19 04:38:23;;;;;;;0.30;0.30;;;;;;;2.54;73.72;93429.41;5087790;28;20044;-33
2022/09/19 04:40:49;;;;;;;0.30;0.30;;;;;;;2.67;72.63;93424.16;5090920;28;20120;-33
2022/09/19 04:43:18;;;;;;;0.35;0.35;;;;;;;2.58;72.85;93427.16;5090764;28;20059;-33
2022/09/19 04:45:47;;;;;;;0.20;0.20;;;;;;;2.50;72.94;93419.97;5087610;28;20119;-33
2022/09/19 04:48:13;;;;;;;0.55;0.55;;;;;;;2.61;72.91;93426.16;5091037;28;20049;-33
2022/09/19 04:50:39;;;;;;;0.20;0.20;;;;;;;2.75;72.66;93425.13;5090586;28;20024;-33
2022/09/19 04:53:05;;;;;;;0.20;0.20;;;;;;;2.78;73.33;93428.84;5090947;28;20023;-33
2022/09/19 04:55:31;;;;;;;1.38;1.20;;;;;;;2.66;73.85;93430.88;5089669;28;20510;-33
2022/09/19 04:57:57;;;;;;;0.50;0.50;;;;;;;2.77;73.62;93439.00;5090651;28;20032;-32
2022/09/19 05:03:25;;;;;;;0.73;0.73;;;;;;;2.71;72.96;93424.66;5090631;28;20038;-33
2022/09/19 05:06:09;;;;;;;0.60;0.60;;;;;;;2.66;73.75;93402.88;5090442;28;20518;-33
2022/09/19 05:09:02;;;;;;;0.45;0.45;;;;;;;2.72;72.76;93419.94;5090819;28;20504;-33
2022/09/19 05:11:53;;;;;;;0.68;0.68;;;;;;;2.61;73.78;93420.72;5090299;28;20028;-33
2022/09/19 05:14:41;;;;;;;0.50;0.50;;;;;;;2.86;73.11;93413.47;5090371;28;20496;-33
2022/09/19 05:17:44;;;;;;;0.30;0.30;;;;;;;2.65;73.68;93410.31;5070164;28;20024;-33
2022/09/19 05:20:10;;;;;;;0.20;0.20;;;;;;;2.76;74.13;93407.56;5070034;28;20036;-33
2022/09/19 05:22:50;;;;;;;0.30;0.30;;;;;;;2.96;74.14;93406.50;5070129;28;20086;-33
2022/09/19 05:25:17;;;;;;;0.50;0.50;;;;;;;2.99;74.13;93416.41;5056508;28;20111;-33
2022/09/19 05:28:05;;;;;;;0.20;0.20;;;;;;;2.85;74.85;93412.75;5090170;28;20166;-33
2022/09/19 05:30:37;;;;;;;;;;;;;;;3.08;75.38;93414.16;5091056;28;20059;-33
2022/09/19 05:33:31;;;;;;;0.43;0.43;;;;;;;3.16;75.67;93408.19;5090449;28;19915;-33
2022/09/19 05:36:04;;;;;;;0.95;0.95;;;;;;;3.43;75.15;93420.97;5090089;28;20032;-33
2022/09/19 05:38:30;;;;;;;0.30;0.30;;;;;;;3.52;75.56;93423.41;5089024;28;20068;-33
2022/09/19 05:40:57;;;;;;;0.68;0.68;;;;;;;3.50;76.42;93423.16;5090452;28;20407;-33
2022/09/19 05:43:41;;;;;;;0.30;0.30;;;;;;;3.69;76.42;93421.31;5090376;28;20035;-33
2022/09/19 05:46:08;;;;;;;0.95;0.95;;;;;;;3.91;76.29;93426.66;5090022;28;20894;-33
2022/09/19 05:48:36;;;;;;;0.32;0.32;;;;;;;3.92;76.94;93432.88;5090089;28;20585;-33
2022/09/19 05:51:16;;;;;;;0.30;0.30;;;;;;;4.01;77.89;93427.81;5090251;28;20035;-33
2022/09/19 05:53:55;;;;;;;0.40;0.40;;;;;;;4.16;77.72;93436.41;5090111;28;20028;-33
2022/09/19 05:56:40;;;;;;;0.45;0.45;;;;;;;4.37;77.92;93423.09;5087930;28;20173;-33
2022/09/19 05:59:09;;;;;;;0.35;0.35;;;;;;;4.46;78.79;93422.78;5090280;28;20088;-33
2022/09/19 06:01:36;;;;;;;0.30;0.30;;;;;;;4.61;78.93;93423.88;5090245;28;20028;-33
2022/09/19 06:04:35;;;;;;;0.25;0.25;;;;;;;4.86;78.62;93410.97;5089972;28;20035;-33
2022/09/19 06:07:22;;;;;;;0.20;0.20;;;;;;;4.95;77.52;93377.81;5093175;28;20026;-33
2022/09/19 06:09:49;;;;;;;0.40;0.40;;;;;;;5.63;76.87;93416.81;5093650;28;20020;-33
2022/09/19 06:12:23;;;;;;;0.63;0.63;;;;;;;5.88;75.94;93416.25;5093799;28;20056;-33
2022/09/19 06:14:49;;;;;;;0.45;0.45;;;;;;;6.03;75.37;93413.81;5093556;28;20028;-33
2022/09/19 06:17:49;;;;;;;1.25;1.25;;;;;;;6.35;74.97;93408.34;5093580;28;20028;-33
2022/09/19 06:20:38;;;;;;;0.57;0.57;;;;;;;6.63;74.70;93407.88;5093791;28;20115;-33
2022/09/19 06:23:10;;;;;;;1.23;1.23;;;;;;;6.71;75.18;93389.56;5093512;28;20483;-33
2022/09/19 06:25:36;;;;;;;1.25;1.25;;;;;;;7.00;74.64;93410.50;5093054;28;20111;-33
2022/09/19 06:28:08;;;;;;;0.65;0.65;;;;;;;7.27;73.77;93414.75;5093363;28;20027;-33
2022/09/19 06:31:18;;;;;;;0.57;0.57;;;;;;;7.51;73.37;93413.78;5093179;28;20024;-33
2022/09/19 06:34:02;;;;;;;1.13;1.13;;;;;;;7.82;73.01;93409.41;5093162;28;20051;-33
2022/09/19 06:36:27;;;;;;;0.20;0.20;;;;;;;8.05;72.27;93413.91;5093204;28;20534;-33
2022/09/19 06:38:52;;;;;;;0.55;0.55;;;;;;;8.62;71.66;93414.84;5093103;28;20044;-33
2022/09/19 06:44:55;;;;;;;0.40;0.40;;;;;;;10.23;65.90;93410.53;5093349;28;20031;-33
2022/09/19 06:47:20;;;;;;;0.28;0.28;;;;;;;10.87;64.38;93408.25;5092920;28;20020;-33
2022/09/19 06:49:46;;;;;;;0.35;0.35;;;;;;;11.42;62.34;93402.88;5092938;28;20024;-33
2022/09/19 06:52:12;;;;;;;2.63;0.95;;;;;;;11.67;61.86;93403.06;5092845;28;20035;-33
2022/09/19 06:54:38;;;;;;;0.20;0.20;;;;;;;12.14;58.06;93403.81;5093159;28;20016;-33
2022/09/19 06:57:03;;;;;;;0.20;0.20;;;;;;;13.07;56.55;93406.22;5075033;28;20020;-33
2022/09/19 06:59:28;;;;;;;0.73;0.73;;;;;;;14.11;53.68;93399.50;5092833;28;20495;-34
2022/09/19 07:01:54;;;;;;;0.20;0.20;;;;;;;15.34;50.69;93409.09;5093047;28;20020;-33
2022/09/19 07:04:20;;;;;;;0.32;0.32;;;;;;;16.53;47.61;93407.50;5092996;28;20531;-34
2022/09/19 07:06:46;;;;;;;0.20;0.20;;;;;;;17.39;45.58;93402.38;5074777;28;20020;-34
2022/09/19 07:09:11;;;;;;;0.30;0.30;;;;;;;18.24;42.79;93393.34;5092808;28;20033;-34
2022/09/19 07:11:37;;;;;;;0.20;0.20;;;;;;;19.05;40.55;93380.38;5092334;28;20028;-34
2022/09/19 07:14:05;;;;;;;0.38;0.35;;;;;;;20.21;38.32;93388.75;5092431;28;20051;-34
2022/09/19 07:16:31;;;;;;;0.47;0.47;;;;;;;20.89;36.58;93389.06;5092195;28;20531;-34
2022/09/19 07:18:57;;;;;;;0.10;0.10;;;;;;;21.04;35.86;93389.25;5091708;28;20483;-34
2022/09/19 07:21:22;;;;;;;0.20;0.20;;;;;;;21.33;35.52;93374.66;5092454;28;20020;-34
2022/09/19 07:23:48;;;;;;;0.25;0.25;;;;;;;21.65;35.43;93387.59;5092516;28;20042;-34
2022/09/19 07:26:17;;;;;;;0.10;0.10;;;;;;;21.94;33.56;93387.00;5091898;28;20028;-34
2022/09/19 07:28:42;;;;;;;0.20;0.20;;;;;;;22.69;32.33;93383.03;5092252;28;20032;-34
2022/09/19 07:31:07;;;;;;;0.00;0.00;;;;;;;22.91;31.42;93386.91;5092366;28;20024;-34
2022/09/19 07:33:33;;;;;;;0.00;0.00;;;;;;;23.31;30.51;93380.34;5092442;28;20473;-34
2022/09/19 07:35:59;;;;;;;0.15;0.15;;;;;;;23.89;28.71;93373.78;5073989;28;20480;-34
2022/09/19 07:38:27;;;;;;;0.30;0.30;;;;;;;24.01;28.84;93370.75;5091872;28;20047;-34
2022/09/19 07:40:53;;;;;;;0.10;0.10;;;;;;;24.45;27.62;93366.31;5091989;28;20024;-34
2022/09/19 07:43:18;;;;;;;0.00;0.00;;;;;;;24.68;25.40;93363.00;5092059;28;20457;-34
2022/09/19 07:45:46;;;;;;;0.10;0.10;;;;;;;24.74;25.63;93368.91;5091970;28;20024;-34
2022/09/19 07:48:12;;;;;;;1.10;1.05;;;;;;;25.10;25.37;93364.00;5091739;28;20043;-34
2022/09/19 07:50:37;;;;;;;0.00;0.00;;;;;;;25.31;24.91;93355.66;5092015;28;20024;-35
2022/09/19 07:53:11;;;;;;;0.10;0.10;;;;;;;25.28;24.63;93370.34;5091690;28;20054;-35
2022/09/19 07:55:36;;;;;;;0.00;0.00;;;;;;;25.64;25.33;93363.28;5091796;28;20023;-35
2022/09/19 07:58:05;;;;;;;0.47;0.47;;;;;;;26.20;24.20;93356.09;5091687;28;20043;-35
2022/09/19 08:00:32;;;;;;;3.97;1.90;;;;;;;26.65;22.55;93350.53;5091768;28;20019;-35
2022/09/19 08:02:59;;;;;;;0.00;0.00;;;;;;;26.80;23.19;93354.59;5091617;28;20103;-35
2022/09/19 08:05:27;;;;;;;0.52;0.50;;;;;;;27.21;22.19;93359.41;5091821;28;20427;-35
2022/09/19 08:07:53;;;;;;;0.00;0.00;;;;;;;26.58;22.84;93356.66;5091433;28;20468;-35
2022/09/19 08:10:20;;;;;;;0.30;0.30;;;;;;;26.63;23.32;93356.16;5091372;28;20464;-34
2022/09/19 08:12:47;;;;;;;0.00;0.00;;;;;;;27.48;21.99;93348.22;5091394;28;20106;-35
2022/09/19 08:15:16;;;;;;;0.00;0.00;;;;;;;27.38;21.28;93345.09;5091258;28;20483;-35
2022/09/19 08:18:00;;;;;;;0.00;0.00;;;;;;;27.82;19.72;93351.34;5091264;28;20038;-35
2022/09/19 08:20:31;;;;;;;0.10;0.10;;;;;;;28.29;20.08;93350.53;5091509;28;20028;-35
2022/09/19 08:23:26;;;;;;;0.10;0.10;;;;;;;29.17;17.91;93338.56;5091520;28;20036;-35
2022/09/19 08:25:53;;;;;;;0.20;0.20;;;;;;;29.10;17.51;93339.81;5069998;28;20070;-35
2022/09/19 08:28:20;;;;;;;0.00;0.00;;;;;;;29.31;16.76;93328.94;5091167;28;20016;-35
2022/09/19 08:30:47;;;;;;;0.57;0.52;;;;;;;28.34;17.69;93327.25;5091220;28;20077;-35
2022/09/19 08:33:12;;;;;;;0.57;0.45;;;;;;;29.04;17.72;93331.13;5090923;28;20572;-35
2022/09/19 08:35:39;;;;;;;0.10;0.10;;;;;;;29.31;18.26;93329.66;5090902;28;20062;-35
2022/09/19 08:38:06;;;;;;;0.00;0.00;;;;;;;28.95;17.24;93331.63;5090985;28;20048;-35
2022/09/19 08:40:44;;;;;;;0.00;0.00;;;;;;;29.14;18.27;93324.97;5091197;28;20016;-35
2022/09/19 08:43:21;;;;;;;0.20;0.20;;;;;;;28.71;16.54;93331.78;5090766;28;20028;-34
2022/09/19 08:45:50;;;;;;;0.00;0.00;;;;;;;29.16;18.16;93316.50;5091176;28;20453;-34
2022/09/19 08:48:42;;;;;;;0.00;0.00;;;;;;;29.42;15.79;93317.09;5091054;28;20024;-35
2022/09/19 08:51:17;;;;;;;0.00;0.00;;;;;;;29.48;17.83;93311.53;5079119;28;20553;-35
2022/09/19 08:53:46;;;;;;;0.00;0.00;;;;;;;30.06;17.08;93308.47;5072667;28;20077;-36
2022/09/19 08:56:13;;;;;;;0.00;0.00;;;;;;;29.53;16.67;93307.38;5072964;28;20438;-35
2022/09/19 08:58:50;;;;;;;0.00;0.00;;;;;;;29.66;17.00;93306.25;5090657;28;20028;-35
2022/09/19 09:01:16;;;;;;;0.00;0.00;;;;;;;29.06;17.63;93302.75;5090851;28;20073;-35
2022/09/19 09:03:54;;;;;;;0.00;0.00;;;;;;;29.19;16.00;93290.28;5090387;28;20059;-35
2022/09/19 09:06:40;;;;;;;0.20;0.20;;;;;;;29.34;16.73;93288.50;5072746;28;20055;-35
2022/09/19 09:09:16;;;;;;;0.00;0.00;;;;;;;29.53;17.38;93289.59;5072868;28;20036;-35
2022/09/19 09:12:17;;;;;;;0.00;0.00;;;;;;;29.55;17.35;93287.50;5072310;28;20491;-35
2022/09/19 09:15:10;;;;;;;0.10;0.10;;;;;;;29.50;16.84;93285.28;5072413;28;20020;-35
2022/09/19 09:18:06;;;;;;;0.10;0.10;;;;;;;29.89;16.97;93282.53;5090371;28;20020;-35
2022/09/19 09:20:41;;;;;;;0.13;0.13;;;;;;;30.30;17.10;93283.31;5090264;28;20111;-35
2022/09/19 09:23:10;;;;;;;0.00;0.00;;;;;;;29.78;16.67;93275.19;5072725;28;20055;-35
2022/09/19 09:25:39;;;;;;;0.00;0.00;;;;;;;30.21;17.36;93287.41;5089948;28;20028;-35
2022/09/19 09:28:26;;;;;;;0.00;0.00;;;;;;;30.07;17.57;93287.84;5090480;28;20024;-35
2022/09/19 09:30:56;;;;;;;0.63;0.13;;;;;;;30.29;16.54;93290.41;5090487;28;20024;-35
2022/09/19 09:33:28;;;;;;;0.00;0.00;;;;;;;31.21;15.01;93291.22;5090581;28;20046;-35
2022/09/19 09:36:15;;;;;;;0.00;0.00;;;;;;;31.88;14.76;93290.03;5072169;28;20039;-35
2022/09/19 09:38:57;;;;;;;17.08;1.98;;;;;;;32.52;14.14;93292.91;5090194;28;20074;-35
2022/09/19 09:42:01;;;;;;;0.00;0.00;;;;;;;33.08;14.46;93276.25;5074576;28;20034;-35
2022/09/19 09:44:39;;;;;;;0.15;0.10;;;;;;;33.33;14.13;93280.69;5011919;28;20561;-35
2022/09/19 09:47:07;;;;;;;0.00;0.00;;;;;;;33.40;14.43;93278.59;4995529;28;20473;-35
2022/09/19 09:49:33;;;;;;;0.00;0.00;;;;;;;33.65;12.86;93270.88;5041288;28;20024;-35
2022/09/19 09:52:13;;;;;;;0.00;0.00;;;;;;;33.53;13.73;93268.69;5094028;28;20081;-35
2022/09/19 09:57:54;;;;;;;20.27;0.60;;;;;;;33.53;14.73;93249.34;5094443;28;20092;-35
2022/09/19 10:06:25;;;;;;;0.00;0.00;;;;;;;33.88;14.65;93243.78;5094253;28;20089;-35
2022/09/19 10:08:52;;;;;;;0.10;0.10;;;;;;;34.20;13.61;93250.34;5076111;28;20492;-35
2022/09/19 10:11:25;;;;;;;0.10;0.10;;;;;;;33.33;13.79;93243.50;5093946;28;20485;-35
2022/09/19 10:13:59;;;;;;;0.00;0.00;;;;;;;31.88;16.42;93250.06;5075819;28;20099;-34
2022/09/19 10:16:29;;;;;;;0.00;0.00;;;;;;;31.06;16.10;93241.81;5093711;28;20066;-35
2022/09/19 10:19:04;;;;;;;0.00;0.00;;;;;;;31.24;15.87;93249.91;5093653;28;20020;-35
2022/09/19 10:21:30;;;;;;;0.20;0.20;;;;;;;30.71;15.91;93214.91;5076141;28;20026;-35
2022/09/19 10:23:56;;;;;;;0.00;0.00;;;;;;;31.35;15.46;93252.22;5075549;28;20016;-35
2022/09/19 10:26:27;;;;;;;0.00;0.00;;;;;;;30.81;15.51;93248.56;5075168;28;20038;-35
2022/09/19 10:28:59;;;;;;;0.00;0.00;;;;;;;31.50;15.42;93243.88;5075464;28;20051;-34
2022/09/19 10:31:39;;;;;;;0.00;0.00;;;;;;;31.17;16.52;93251.25;5093306;28;20031;-35
2022/09/19 10:34:27;;;;;;;0.15;0.15;;;;;;;31.48;16.50;93250.28;5093298;28;20032;-35
2022/09/19 10:36:53;;;;;;;0.17;0.17;;;;;;;29.98;16.51;93243.56;5093156;28;20449;-34
2022/09/19 10:39:21;;;;;;;0.00;0.00;;;;;;;30.21;16.50;93236.88;5075100;28;20127;-34
2022/09/19 10:41:47;;;;;;;0.40;0.40;;;;;;;30.69;17.77;93236.94;5093175;28;20016;-34
2022/09/19 10:44:21;;;;;;;0.17;0.17;;;;;;;30.93;17.72;93236.66;5075295;28;20027;-35
2022/09/19 10:47:09;;;;;;;0.10;0.10;;;;;;;31.74;17.58;93229.91;5093007;28;20024;-35
2022/09/19 10:50:01;;;;;;;0.00;0.00;;;;;;;31.72;17.41;93227.75;5075319;28;20024;-35
2022/09/19 10:52:30;;;;;;;0.10;0.10;;;;;;;32.26;16.66;93224.75;5073630;28;20492;-35
2022/09/19 10:54:58;;;;;;;0.00;0.00;;;;;;;32.27;15.79;93223.31;5092751;28;20415;-35
2022/09/19 10:57:46;;;;;;;2.00;0.15;;;;;;;32.22;16.83;93219.00;5092807;28;20168;-34
2022/09/19 11:00:49;;;;;;;0.00;0.00;;;;;;;32.38;16.34;93210.56;5074667;28;20032;-35
2022/09/19 11:03:25;;;;;;;0.08;0.08;;;;;;;31.92;15.61;93207.97;5089704;28;20486;-35
2022/09/19 11:06:12;;;;;;;0.20;0.10;;;;;;;31.11;14.92;93209.09;5092926;28;20024;-35
2022/09/19 11:08:46;;;;;;;0.00;0.00;;;;;;;30.78;15.08;93200.75;5074873;28;20559;-34
2022/09/19 11:11:36;;;;;;;0.00;0.00;;;;;;;29.88;15.83;93195.72;5092730;28;20411;-34
2022/09/19 11:14:11;;;;;;;0.00;0.00;;;;;;;29.74;16.99;93191.84;5092766;28;20038;-34
2022/09/19 11:17:04;;;;;;;0.00;0.00;;;;;;;30.02;16.57;93191.66;5074465;28;20034;-34
2022/09/19 11:19:57;;;;;;;0.00;0.00;;;;;;;29.55;16.40;93187.94;5074875;28;20026;-34
2022/09/19 11:22:56;;;;;;;0.10;0.10;;;;;;;29.70;16.81;93180.38;5092281;28;20028;-35
2022/09/19 11:25:28;;;;;;;0.00;0.00;;;;;;;29.57;15.89;93173.75;5092239;28;20028;-34
2022/09/19 11:28:31;;;;;;;0.15;0.15;;;;;;;29.53;17.69;93175.78;5092440;28;20028;-34
2022/09/19 11:31:08;;;;;;;0.10;0.10;;;;;;;29.49;17.11;93158.66;5092197;28;20028;-35
2022/09/19 11:33:57;;;;;;;0.00;0.00;;;;;;;29.37;16.32;93155.59;5074204;28;20074;-34
2022/09/19 11:36:47;;;;;;;0.20;0.20;;;;;;;29.28;15.96;93157.53;5074397;28;20036;-35
2022/09/19 11:39:54;;;;;;;0.10;0.10;;;;;;;28.99;16.96;93161.19;5026377;28;20052;-34
2022/09/19 11:42:20;;;;;;;0.10;0.10;;;;;;;27.95;15.02;93151.66;5066693;28;20115;-34
2022/09/19 11:44:46;;;;;;;0.00;0.00;;;;;;;28.22;15.83;93150.91;5092190;28;20169;-34
2022/09/19 11:47:38;;;;;;;0.00;0.00;;;;;;;27.29;15.44;93161.94;5092102;28;20078;-35
2022/09/19 11:50:29;;;;;;;0.10;0.10;;;;;;;27.22;16.78;93156.78;5092039;28;20027;-34
2022/09/19 11:53:28;;;;;;;0.17;0.17;;;;;;;27.50;17.41;93151.91;5091761;28;20063;-34
2022/09/19 11:56:35;;;;;;;0.00;0.00;;;;;;;26.99;15.19;93144.81;5092011;28;20063;-34
2022/09/19 11:59:24;;;;;;;0.10;0.10;;;;;;;26.82;16.41;93150.69;5091599;28;20169;-34
2022/09/19 12:01:56;;;;;;;0.00;0.00;;;;;;;26.59;17.69;93152.13;5091900;28;20114;-34
2022/09/19 12:04:23;;;;;;;0.00;0.00;;;;;;;26.56;17.85;93156.28;5091155;28;20510;-34
2022/09/19 12:07:08;;;;;;;0.10;0.10;;;;;;;26.79;16.74;93152.72;5091508;28;20024;-34
2022/09/19 12:09:33;;;;;;;0.00;0.00;;;;;;;26.72;17.33;93147.53;5091537;28;20042;-34
2022/09/19 12:12:10;;;;;;;0.10;0.10;;;;;;;26.32;19.85;93152.69;5091594;28;20024;-34
2022/09/19 12:14:42;;;;;;;1.23;0.75;;;;;;;26.15;19.05;93156.41;5091647;28;20032;-34
2022/09/19 12:17:23;;;;;;;0.00;0.00;;;;;;;26.07;19.06;93156.88;5073720;28;20035;-34
2022/09/19 12:20:23;;;;;;;0.10;0.10;;;;;;;25.86;20.23;93145.56;5091255;28;20466;-34
2022/09/19 12:22:55;;;;;;;0.10;0.10;;;;;;;25.53;20.55;93138.81;5033239;28;20036;-34
2022/09/19 12:25:24;;;;;;;0.20;0.20;;;;;;;25.27;21.04;93137.91;5091081;28;20541;-34
2022/09/19 12:27:52;;;;;;;0.20;0.20;;;;;;;25.07;20.31;93142.09;5091085;28;20510;-34
2022/09/19 12:30:18;;;;;;;;;;;;;;;24.98;19.62;93132.63;5073522;28;20047;-34
2022/09/19 12:32:52;;;;;;;0.10;0.10;;;;;;;24.84;19.63;93132.84;5091228;28;19908;-34
2022/09/19 12:35:35;;;;;;;0.10;0.10;;;;;;;24.48;20.18;93125.81;5073002;28;20039;-34
2022/09/19 12:38:16;;;;;;;0.00;0.00;;;;;;;24.34;19.11;93121.75;5072829;28;20139;-34
2022/09/19 12:40:55;;;;;;;0.10;0.10;;;;;;;24.16;21.57;93118.97;5091185;28;20039;-34